createdAt,value
2018-10-01T00:00:15.862Z,7.10
2018-10-01T00:02:44.136Z,7.47
2018-10-01T00:05:12.817Z,6.90
2018-10-01T00:07:41.132Z,7.73
2018-10-01T00:10:09.456Z,7.60
2018-10-01T00:12:37.789Z,7.53
2018-10-01T00:15:06.500Z,7.43
2018-10-01T00:17:34.782Z,7.47
2018-10-01T00:20:08.817Z,7.77
2018-10-01T00:22:42.714Z,7.27
2018-10-01T00:25:11.042Z,6.97
2018-10-01T00:27:39.346Z,7.23
2018-10-01T00:30:07.647Z,8.03
2018-10-01T00:32:36.704Z,7.27
2018-10-01T00:35:05.387Z,6.97
2018-10-01T00:37:34.043Z,7.97
2018-10-01T00:40:02.333Z,7.37
2018-10-01T00:42:30.965Z,7.33
2018-10-01T00:45:01.025Z,7.33
2018-10-01T00:47:29.672Z,7.10
2018-10-01T00:49:58.361Z,7.80
2018-10-01T00:52:27.037Z,7.33
2018-10-01T00:54:55.646Z,7.63
2018-10-01T00:57:24.321Z,7.30
2018-10-01T00:59:52.629Z,6.93
2018-10-01T01:02:21.010Z,6.90
2018-10-01T01:04:49.324Z,6.90
2018-10-01T01:07:18.012Z,7.07
2018-10-01T01:09:46.676Z,6.37
2018-10-01T01:12:15.547Z,6.77
2018-10-01T01:14:44.209Z,6.43
2018-10-01T01:17:12.856Z,6.77
2018-10-01T01:19:41.554Z,7.00
2018-10-01T01:22:09.837Z,6.77
2018-10-01T01:24:38.490Z,6.10
2018-10-01T01:27:06.830Z,6.10
2018-10-01T01:29:35.518Z,6.23
2018-10-01T01:32:04.177Z,5.97
2018-10-01T01:34:32.864Z,6.20
2018-10-01T01:37:01.175Z,6.00
2018-10-01T01:39:29.820Z,6.17
2018-10-01T01:41:58.557Z,5.80
2018-10-01T01:44:27.244Z,5.80
2018-10-01T01:46:55.862Z,5.40
2018-10-01T01:49:24.602Z,5.20
2018-10-01T01:51:53.276Z,6.30
2018-10-01T01:54:21.937Z,5.37
2018-10-01T01:56:50.517Z,4.93
2018-10-01T01:59:20.155Z,4.70
2018-10-01T02:01:48.831Z,4.67
2018-10-01T02:04:17.099Z,5.33
2018-10-01T02:06:45.743Z,4.97
2018-10-01T02:09:14.378Z,4.97
2018-10-01T02:11:43.096Z,4.80
2018-10-01T02:14:11.710Z,4.40
2018-10-01T02:16:40.442Z,4.80
2018-10-01T02:19:08.740Z,4.17
2018-10-01T02:21:37.418Z,4.20
2018-10-01T02:24:05.723Z,4.33
2018-10-01T02:26:34.068Z,4.23
2018-10-01T02:29:02.719Z,4.43
2018-10-01T02:31:31.386Z,4.03
2018-10-01T02:34:00.079Z,4.37
2018-10-01T02:36:28.338Z,4.80
2018-10-01T02:38:56.605Z,4.40
2018-10-01T02:41:25.028Z,4.40
2018-10-01T02:43:53.685Z,4.20
2018-10-01T02:46:22.017Z,5.77
2018-10-01T02:48:50.697Z,4.60
2018-10-01T02:51:18.983Z,4.27
2018-10-01T02:53:52.600Z,4.17
2018-10-01T02:56:20.987Z,5.33
2018-10-01T02:58:49.284Z,4.40
2018-10-01T03:01:17.859Z,4.93
2018-10-01T03:03:46.179Z,4.47
2018-10-01T03:06:14.865Z,5.43
2018-10-01T03:08:43.863Z,4.80
2018-10-01T03:11:12.168Z,4.23
2018-10-01T03:13:40.448Z,4.37
2018-10-01T03:16:09.012Z,4.93
2018-10-01T03:18:38.584Z,4.30
2018-10-01T03:21:07.298Z,5.20
2018-10-01T03:23:35.898Z,4.53
2018-10-01T03:26:04.559Z,4.63
2018-10-01T03:28:32.858Z,5.13
2018-10-01T03:31:01.237Z,4.27
2018-10-01T03:33:29.548Z,5.83
2018-10-01T03:35:57.813Z,4.73
2018-10-01T03:38:26.518Z,4.73
2018-10-01T03:40:54.829Z,4.17
2018-10-01T03:43:23.494Z,4.90
2018-10-01T03:45:52.168Z,5.13
2018-10-01T03:48:20.463Z,4.93
2018-10-01T03:50:49.066Z,4.57
2018-10-01T03:53:17.723Z,4.53
2018-10-01T03:55:46.394Z,4.17
2018-10-01T03:58:14.758Z,4.90
2018-10-01T04:00:43.510Z,4.27
2018-10-01T04:03:12.246Z,4.50
2018-10-01T04:05:40.907Z,4.33
2018-10-01T04:08:09.562Z,4.00
2018-10-01T04:10:38.195Z,3.87
2018-10-01T04:13:06.531Z,5.40
2018-10-01T04:15:34.856Z,3.47
2018-10-01T04:18:03.155Z,3.70
2018-10-01T04:20:31.470Z,3.50
2018-10-01T04:23:00.118Z,3.10
2018-10-01T04:25:28.829Z,3.50
2018-10-01T04:27:57.483Z,3.70
2018-10-01T04:30:26.053Z,3.80
2018-10-01T04:32:54.402Z,3.70
2018-10-01T04:35:22.762Z,3.67
2018-10-01T04:37:51.042Z,3.47
2018-10-01T04:40:19.389Z,3.40
2018-10-01T04:42:47.680Z,4.13
2018-10-01T04:45:16.390Z,4.10
2018-10-01T04:47:45.069Z,3.23
2018-10-01T04:50:13.410Z,3.30
2018-10-01T04:52:42.383Z,3.07
2018-10-01T04:55:10.719Z,3.43
2018-10-01T04:57:39.024Z,3.73
2018-10-01T05:00:07.712Z,3.50
2018-10-01T05:02:36.428Z,3.63
2018-10-01T05:05:05.176Z,3.00
2018-10-01T05:07:33.851Z,2.97
2018-10-01T05:10:02.200Z,3.20
2018-10-01T05:12:30.888Z,3.33
2018-10-01T05:14:59.487Z,3.40
2018-10-01T05:17:28.153Z,3.00
2018-10-01T05:19:56.844Z,3.00
2018-10-01T05:22:25.141Z,3.13
2018-10-01T05:24:53.838Z,2.90
2018-10-01T05:27:22.170Z,3.00
2018-10-01T05:29:50.857Z,3.43
2018-10-01T05:32:19.155Z,3.13
2018-10-01T05:34:47.445Z,3.47
2018-10-01T05:37:15.752Z,3.47
2018-10-01T05:39:44.034Z,2.70
2018-10-01T05:42:12.460Z,2.77
2018-10-01T05:44:41.133Z,2.90
2018-10-01T05:47:09.466Z,2.90
2018-10-01T05:49:37.820Z,2.63
2018-10-01T05:52:06.934Z,3.10
2018-10-01T05:54:35.204Z,2.83
2018-10-01T05:57:03.917Z,2.93
2018-10-01T05:59:32.179Z,3.07
2018-10-01T06:02:00.938Z,2.57
2018-10-01T06:04:29.223Z,2.60
2018-10-01T06:06:57.608Z,2.73
2018-10-01T06:09:26.396Z,3.33
2018-10-01T06:11:55.366Z,2.90
2018-10-01T06:14:24.029Z,2.87
2018-10-01T06:16:52.715Z,2.70
2018-10-01T06:19:21.365Z,2.83
2018-10-01T06:21:49.674Z,3.00
2018-10-01T06:24:18.290Z,2.80
2018-10-01T06:26:46.997Z,2.40
2018-10-01T06:29:15.570Z,2.70
2018-10-01T06:31:44.244Z,2.37
2018-10-01T06:34:12.537Z,3.00
2018-10-01T06:36:40.816Z,2.47
2018-10-01T06:39:10.651Z,2.53
2018-10-01T06:41:39.456Z,3.43
2018-10-01T06:44:08.269Z,2.03
2018-10-01T06:46:36.912Z,2.47
2018-10-01T06:49:05.693Z,2.40
2018-10-01T06:51:34.397Z,2.63
2018-10-01T06:54:03.042Z,2.30
2018-10-01T06:56:31.657Z,2.60
2018-10-01T06:58:59.969Z,2.70
2018-10-01T07:01:28.645Z,2.57
2018-10-01T07:03:56.958Z,2.50
2018-10-01T07:06:25.256Z,3.17
2018-10-01T07:08:53.946Z,2.03
2018-10-01T07:11:23.636Z,2.20
2018-10-01T07:13:51.889Z,2.37
2018-10-01T07:16:20.217Z,2.40
2018-10-01T07:18:48.897Z,2.60
2018-10-01T07:21:17.631Z,2.57
2018-10-01T07:23:45.900Z,2.30
2018-10-01T07:26:14.532Z,2.13
2018-10-01T07:28:42.847Z,2.70
2018-10-01T07:31:11.509Z,2.03
2018-10-01T07:33:40.189Z,1.90
2018-10-01T07:36:08.858Z,2.03
2018-10-01T07:38:37.511Z,2.63
2018-10-01T07:41:06.437Z,2.07
2018-10-01T07:43:34.778Z,2.17
2018-10-01T07:46:03.495Z,2.10
2018-10-01T07:48:31.844Z,1.83
2018-10-01T07:51:00.236Z,2.00
2018-10-01T07:53:28.929Z,1.83
2018-10-01T07:55:57.268Z,2.37
2018-10-01T07:58:26.115Z,1.70
2018-10-01T08:00:55.079Z,1.90
2018-10-01T08:03:23.707Z,1.90
2018-10-01T08:05:52.413Z,1.60
2018-10-01T08:08:20.880Z,2.00
2018-10-01T08:10:49.149Z,1.43
2018-10-01T08:13:17.799Z,1.90
2018-10-01T08:15:46.504Z,1.87
2018-10-01T08:18:15.499Z,2.10
2018-10-01T08:20:43.905Z,2.13
2018-10-01T08:23:12.244Z,1.50
2018-10-01T08:25:41.052Z,1.60
2018-10-01T08:28:09.817Z,1.40
2018-10-01T08:30:38.120Z,1.13
2018-10-01T08:33:06.415Z,1.83
2018-10-01T08:35:35.278Z,1.60
2018-10-01T08:38:03.544Z,2.07
2018-10-01T08:40:32.160Z,0.90
2018-10-01T08:43:00.825Z,1.57
2018-10-01T08:45:29.127Z,1.80
2018-10-01T08:47:57.808Z,1.40
2018-10-01T08:50:31.805Z,1.40
2018-10-01T08:55:10.129Z,1.80
2018-10-01T08:57:38.819Z,1.50
2018-10-01T09:00:07.546Z,1.40
2018-10-01T09:02:36.271Z,1.70
2018-10-01T09:05:05.049Z,1.50
2018-10-01T09:07:33.738Z,1.10
2018-10-01T09:10:02.401Z,2.33
2018-10-01T09:12:31.044Z,7.40
2018-10-01T09:14:59.744Z,1.43
2018-10-01T09:17:28.045Z,1.67
2018-10-01T09:19:56.323Z,5.30
2018-10-01T09:22:24.615Z,1.30
2018-10-01T09:24:53.308Z,1.40
2018-10-01T09:27:21.639Z,1.50
2018-10-01T09:29:50.330Z,1.03
2018-10-01T09:32:18.764Z,1.27
2018-10-01T09:34:47.061Z,1.40
2018-10-01T09:37:15.374Z,1.37
2018-10-01T09:39:43.655Z,0.97
2018-10-01T09:42:11.966Z,0.97
2018-10-01T09:44:40.294Z,1.10
2018-10-01T09:47:08.549Z,1.13
2018-10-01T09:49:36.855Z,1.17
2018-10-01T09:52:05.182Z,0.83
2018-10-01T09:54:33.473Z,0.93
2018-10-01T09:57:01.744Z,1.23
2018-10-01T09:59:30.272Z,0.93
2018-10-01T10:01:58.757Z,0.87
2018-10-01T10:04:28.969Z,0.97
2018-10-01T10:06:57.234Z,0.70
2018-10-01T10:09:25.644Z,0.73
2018-10-01T10:11:54.774Z,0.70
2018-10-01T10:14:23.142Z,0.83
2018-10-01T10:16:51.758Z,0.70
2018-10-01T10:19:19.979Z,0.70
2018-10-01T10:21:51.590Z,0.73
2018-10-01T10:24:19.886Z,0.53
2018-10-01T10:26:48.168Z,1.00
2018-10-01T10:29:16.506Z,0.50
2018-10-01T10:31:44.784Z,0.90
2018-10-01T10:34:13.143Z,0.63
2018-10-01T10:36:41.384Z,0.67
2018-10-01T10:39:10.951Z,0.30
2018-10-01T10:41:39.784Z,0.73
2018-10-01T10:44:08.038Z,0.53
2018-10-01T10:46:36.357Z,0.67
2018-10-01T10:49:04.671Z,0.67
2018-10-01T10:51:32.924Z,0.77
2018-10-01T10:54:01.216Z,0.37
2018-10-01T10:56:29.500Z,0.90
2018-10-01T10:58:57.901Z,0.77
2018-10-01T11:01:26.170Z,0.83
2018-10-01T11:03:54.461Z,0.43
2018-10-01T11:06:22.735Z,0.40
2018-10-01T11:08:51.166Z,0.53
2018-10-01T11:11:19.474Z,0.23
2018-10-01T11:13:47.775Z,0.63
2018-10-01T11:16:16.256Z,0.80
2018-10-01T11:18:44.735Z,0.67
2018-10-01T11:21:13.048Z,0.73
2018-10-01T11:23:41.241Z,0.40
2018-10-01T11:26:09.576Z,0.60
2018-10-01T11:28:37.980Z,0.50
2018-10-01T11:31:06.334Z,0.60
2018-10-01T11:33:34.681Z,0.67
2018-10-01T11:36:03.016Z,0.90
2018-10-01T11:38:31.451Z,0.73
2018-10-01T11:40:59.761Z,0.67
2018-10-01T11:43:28.054Z,0.77
2018-10-01T11:45:56.330Z,1.07
2018-10-01T11:48:24.619Z,0.83
2018-10-01T11:50:52.971Z,0.87
2018-10-01T11:53:21.229Z,0.90
2018-10-01T11:55:49.491Z,0.80
2018-10-01T11:58:17.750Z,1.00
2018-10-01T12:00:46.028Z,0.77
2018-10-01T12:03:14.500Z,0.87
2018-10-01T12:05:42.804Z,1.40
2018-10-01T12:08:11.087Z,0.93
2018-10-01T12:10:39.487Z,1.10
2018-10-01T12:13:07.779Z,0.87
2018-10-01T12:15:36.088Z,0.80
2018-10-01T12:18:04.383Z,1.00
2018-10-01T12:20:32.743Z,0.93
2018-10-01T12:23:01.060Z,0.90
2018-10-01T12:25:29.316Z,1.10
2018-10-01T12:27:57.604Z,0.97
2018-10-01T12:30:25.924Z,0.70
2018-10-01T12:32:54.285Z,0.80
2018-10-01T12:35:22.639Z,1.23
2018-10-01T12:37:50.903Z,0.90
2018-10-01T12:40:19.184Z,0.53
2018-10-01T12:42:47.489Z,0.60
2018-10-01T12:45:15.871Z,0.47
2018-10-01T12:47:44.119Z,0.57
2018-10-01T12:50:12.389Z,0.53
2018-10-01T12:52:40.782Z,0.50
2018-10-01T12:55:09.096Z,0.73
2018-10-01T12:57:37.430Z,1.20
2018-10-01T13:01:08.671Z,1.20
2018-10-01T13:03:36.949Z,0.93
2018-10-01T13:06:05.261Z,1.13
2018-10-01T13:08:33.810Z,1.00
2018-10-01T13:11:09.229Z,1.10
2018-10-01T13:13:37.652Z,1.23
2018-10-01T13:16:06.017Z,1.37
2018-10-01T13:18:34.563Z,1.20
2018-10-01T13:21:03.142Z,1.17
2018-10-01T13:23:31.551Z,1.27
2018-10-01T13:26:00.329Z,0.80
